sensor_id;sensor_type;location;lat;lon;timestamp;temperature;humidity
44477;DHT22;30180;44.788;10.366;2023-10-08T00:00:07;23.30;63.70
44477;DHT22;30180;44.788;10.366;2023-10-08T00:02:49;23.30;63.80
44477;DHT22;30180;44.788;10.366;2023-10-08T00:05:19;23.20;63.70
44477;DHT22;30180;44.788;10.366;2023-10-08T00:07:50;23.20;63.70
44477;DHT22;30180;44.788;10.366;2023-10-08T00:10:18;23.20;63.70
44477;DHT22;30180;44.788;10.366;2023-10-08T00:12:53;23.20;63.70
44477;DHT22;30180;44.788;10.366;2023-10-08T00:15:22;23.20;63.70
44477;DHT22;30180;44.788;10.366;2023-10-08T00:17:52;23.20;63.70
44477;DHT22;30180;44.788;10.366;2023-10-08T00:20:21;23.20;63.70
44477;DHT22;30180;44.788;10.366;2023-10-08T00:23:05;23.20;63.70
44477;DHT22;30180;44.788;10.366;2023-10-08T00:25:34;23.20;63.70
44477;DHT22;30180;44.788;10.366;2023-10-08T00:28:08;23.20;63.70
44477;DHT22;30180;44.788;10.366;2023-10-08T00:30:40;23.20;63.70
44477;DHT22;30180;44.788;10.366;2023-10-08T00:33:09;23.30;63.70
44477;DHT22;30180;44.788;10.366;2023-10-08T00:35:38;23.20;63.70
44477;DHT22;30180;44.788;10.366;2023-10-08T00:38:10;23.20;63.60
44477;DHT22;30180;44.788;10.366;2023-10-08T00:40:42;23.20;63.60
44477;DHT22;30180;44.788;10.366;2023-10-08T00:43:30;23.20;63.60
44477;DHT22;30180;44.788;10.366;2023-10-08T00:46:00;23.30;63.70
44477;DHT22;30180;44.788;10.366;2023-10-08T00:48:29;23.20;63.60
44477;DHT22;30180;44.788;10.366;2023-10-08T00:51:03;23.20;63.70
44477;DHT22;30180;44.788;10.366;2023-10-08T00:53:43;23.30;63.70
44477;DHT22;30180;44.788;10.366;2023-10-08T00:56:13;23.20;63.60
44477;DHT22;30180;44.788;10.366;2023-10-08T00:58:46;23.20;63.60
44477;DHT22;30180;44.788;10.366;2023-10-08T01:01:16;23.20;63.60
44477;DHT22;30180;44.788;10.366;2023-10-08T01:03:47;23.20;63.60
44477;DHT22;30180;44.788;10.366;2023-10-08T01:06:17;23.20;64.30
44477;DHT22;30180;44.788;10.366;2023-10-08T01:08:48;23.30;63.70
44477;DHT22;30180;44.788;10.366;2023-10-08T01:11:20;23.20;63.60
44477;DHT22;30180;44.788;10.366;2023-10-08T01:13:58;23.20;63.60
44477;DHT22;30180;44.788;10.366;2023-10-08T01:16:27;23.30;63.70
44477;DHT22;30180;44.788;10.366;2023-10-08T01:18:56;23.20;63.60
44477;DHT22;30180;44.788;10.366;2023-10-08T01:21:28;23.20;63.60
44477;DHT22;30180;44.788;10.366;2023-10-08T01:24:05;23.20;63.60
44477;DHT22;30180;44.788;10.366;2023-10-08T01:26:34;23.20;63.60
44477;DHT22;30180;44.788;10.366;2023-10-08T01:29:09;23.20;63.60
44477;DHT22;30180;44.788;10.366;2023-10-08T01:31:46;23.20;63.60
44477;DHT22;30180;44.788;10.366;2023-10-08T01:34:15;23.20;63.60
44477;DHT22;30180;44.788;10.366;2023-10-08T01:36:44;23.20;63.60
44477;DHT22;30180;44.788;10.366;2023-10-08T01:39:14;23.20;63.60
44477;DHT22;30180;44.788;10.366;2023-10-08T01:41:44;23.30;63.60
44477;DHT22;30180;44.788;10.366;2023-10-08T01:44:13;23.20;63.60
44477;DHT22;30180;44.788;10.366;2023-10-08T01:46:43;23.20;63.60
44477;DHT22;30180;44.788;10.366;2023-10-08T01:49:12;23.20;63.50
44477;DHT22;30180;44.788;10.366;2023-10-08T01:51:43;23.20;63.60
44477;DHT22;30180;44.788;10.366;2023-10-08T01:54:16;23.20;63.60
44477;DHT22;30180;44.788;10.366;2023-10-08T01:56:48;23.20;63.50
44477;DHT22;30180;44.788;10.366;2023-10-08T01:59:17;23.20;63.50
44477;DHT22;30180;44.788;10.366;2023-10-08T02:01:45;23.20;63.50
44477;DHT22;30180;44.788;10.366;2023-10-08T02:04:15;23.20;63.50
44477;DHT22;30180;44.788;10.366;2023-10-08T02:06:44;23.20;63.50
44477;DHT22;30180;44.788;10.366;2023-10-08T02:09:14;23.20;63.50
44477;DHT22;30180;44.788;10.366;2023-10-08T02:11:49;23.20;63.50
44477;DHT22;30180;44.788;10.366;2023-10-08T02:14:18;23.20;63.50
44477;DHT22;30180;44.788;10.366;2023-10-08T02:16:47;23.20;63.50
44477;DHT22;30180;44.788;10.366;2023-10-08T02:19:16;23.20;63.50
44477;DHT22;30180;44.788;10.366;2023-10-08T02:21:54;23.20;63.50
44477;DHT22;30180;44.788;10.366;2023-10-08T02:24:24;23.20;63.50
44477;DHT22;30180;44.788;10.366;2023-10-08T02:26:54;23.20;63.50
44477;DHT22;30180;44.788;10.366;2023-10-08T02:29:26;23.20;63.50
44477;DHT22;30180;44.788;10.366;2023-10-08T02:31:54;23.20;63.50
44477;DHT22;30180;44.788;10.366;2023-10-08T02:34:23;23.20;63.50
44477;DHT22;30180;44.788;10.366;2023-10-08T02:36:51;23.20;63.50
44477;DHT22;30180;44.788;10.366;2023-10-08T02:39:19;23.20;63.50
44477;DHT22;30180;44.788;10.366;2023-10-08T02:41:54;23.20;63.50
44477;DHT22;30180;44.788;10.366;2023-10-08T02:44:26;23.20;63.50
44477;DHT22;30180;44.788;10.366;2023-10-08T02:46:55;23.20;63.50
44477;DHT22;30180;44.788;10.366;2023-10-08T02:49:23;23.20;63.50
44477;DHT22;30180;44.788;10.366;2023-10-08T02:51:53;23.20;63.50
44477;DHT22;30180;44.788;10.366;2023-10-08T02:54:23;23.20;63.50
44477;DHT22;30180;44.788;10.366;2023-10-08T02:57:00;23.20;63.50
44477;DHT22;30180;44.788;10.366;2023-10-08T02:59:32;23.20;63.50
44477;DHT22;30180;44.788;10.366;2023-10-08T03:02:07;23.20;63.50
44477;DHT22;30180;44.788;10.366;2023-10-08T03:04:42;23.20;63.50
44477;DHT22;30180;44.788;10.366;2023-10-08T03:07:12;23.20;63.50
44477;DHT22;30180;44.788;10.366;2023-10-08T03:09:49;23.20;63.50
44477;DHT22;30180;44.788;10.366;2023-10-08T03:12:19;23.20;63.40
44477;DHT22;30180;44.788;10.366;2023-10-08T03:14:52;23.20;63.50
44477;DHT22;30180;44.788;10.366;2023-10-08T03:17:40;23.20;63.40
44477;DHT22;30180;44.788;10.366;2023-10-08T03:20:16;23.20;63.40
44477;DHT22;30180;44.788;10.366;2023-10-08T03:23:05;23.20;63.40
44477;DHT22;30180;44.788;10.366;2023-10-08T03:25:40;23.20;63.40
44477;DHT22;30180;44.788;10.366;2023-10-08T03:28:11;23.20;63.50
44477;DHT22;30180;44.788;10.366;2023-10-08T03:30:40;23.20;63.40
44477;DHT22;30180;44.788;10.366;2023-10-08T03:33:17;23.20;63.40
44477;DHT22;30180;44.788;10.366;2023-10-08T03:35:51;23.20;63.40
44477;DHT22;30180;44.788;10.366;2023-10-08T03:38:22;23.20;63.40
44477;DHT22;30180;44.788;10.366;2023-10-08T03:41:06;23.20;63.40
44477;DHT22;30180;44.788;10.366;2023-10-08T03:43:37;23.20;63.40
44477;DHT22;30180;44.788;10.366;2023-10-08T03:46:14;23.20;63.40
44477;DHT22;30180;44.788;10.366;2023-10-08T03:48:48;23.20;63.40
44477;DHT22;30180;44.788;10.366;2023-10-08T03:51:18;23.20;63.40
44477;DHT22;30180;44.788;10.366;2023-10-08T03:53:48;23.20;63.40
44477;DHT22;30180;44.788;10.366;2023-10-08T03:56:33;23.20;63.40
44477;DHT22;30180;44.788;10.366;2023-10-08T03:59:05;23.20;63.40
44477;DHT22;30180;44.788;10.366;2023-10-08T04:01:41;23.20;63.40
44477;DHT22;30180;44.788;10.366;2023-10-08T04:04:10;23.20;63.40
44477;DHT22;30180;44.788;10.366;2023-10-08T04:06:41;23.20;63.40
44477;DHT22;30180;44.788;10.366;2023-10-08T04:09:15;23.20;63.40
44477;DHT22;30180;44.788;10.366;2023-10-08T04:11:51;23.20;63.40
44477;DHT22;30180;44.788;10.366;2023-10-08T04:14:27;23.20;63.40
44477;DHT22;30180;44.788;10.366;2023-10-08T04:16:56;23.20;63.40
44477;DHT22;30180;44.788;10.366;2023-10-08T04:19:26;23.10;63.40
44477;DHT22;30180;44.788;10.366;2023-10-08T04:21:54;23.20;63.40
44477;DHT22;30180;44.788;10.366;2023-10-08T04:24:25;23.20;63.40
44477;DHT22;30180;44.788;10.366;2023-10-08T04:26:56;23.20;63.40
44477;DHT22;30180;44.788;10.366;2023-10-08T04:29:26;23.20;63.40
44477;DHT22;30180;44.788;10.366;2023-10-08T04:31:59;23.20;63.40
44477;DHT22;30180;44.788;10.366;2023-10-08T04:34:36;23.10;63.40
44477;DHT22;30180;44.788;10.366;2023-10-08T04:37:04;23.20;63.40
44477;DHT22;30180;44.788;10.366;2023-10-08T04:39:39;23.20;63.40
44477;DHT22;30180;44.788;10.366;2023-10-08T04:42:14;23.10;63.40
44477;DHT22;30180;44.788;10.366;2023-10-08T04:44:54;23.20;63.40
44477;DHT22;30180;44.788;10.366;2023-10-08T04:47:25;23.20;63.40
44477;DHT22;30180;44.788;10.366;2023-10-08T04:50:00;23.20;63.40
44477;DHT22;30180;44.788;10.366;2023-10-08T04:52:31;23.20;63.40
44477;DHT22;30180;44.788;10.366;2023-10-08T04:55:01;23.20;63.40
44477;DHT22;30180;44.788;10.366;2023-10-08T04:57:40;23.20;63.40
44477;DHT22;30180;44.788;10.366;2023-10-08T05:00:12;23.20;63.40
44477;DHT22;30180;44.788;10.366;2023-10-08T05:02:42;23.20;63.40
44477;DHT22;30180;44.788;10.366;2023-10-08T05:05:17;23.20;63.40
44477;DHT22;30180;44.788;10.366;2023-10-08T05:08:05;23.20;63.40
44477;DHT22;30180;44.788;10.366;2023-10-08T05:10:55;23.20;63.40
44477;DHT22;30180;44.788;10.366;2023-10-08T05:13:42;23.20;63.40
44477;DHT22;30180;44.788;10.366;2023-10-08T05:16:34;23.20;63.40
44477;DHT22;30180;44.788;10.366;2023-10-08T05:19:10;23.10;63.30
44477;DHT22;30180;44.788;10.366;2023-10-08T05:22:16;23.20;63.40
44477;DHT22;30180;44.788;10.366;2023-10-08T05:25:10;23.10;63.30
44477;DHT22;30180;44.788;10.366;2023-10-08T05:27:53;23.10;63.30
44477;DHT22;30180;44.788;10.366;2023-10-08T05:30:26;23.10;63.30
44477;DHT22;30180;44.788;10.366;2023-10-08T05:32:57;23.10;63.30
44477;DHT22;30180;44.788;10.366;2023-10-08T05:35:40;23.10;63.30
44477;DHT22;30180;44.788;10.366;2023-10-08T05:38:22;23.20;63.40
44477;DHT22;30180;44.788;10.366;2023-10-08T05:41:05;23.20;63.40
44477;DHT22;30180;44.788;10.366;2023-10-08T05:43:54;23.10;63.30
44477;DHT22;30180;44.788;10.366;2023-10-08T05:46:40;23.10;63.30
44477;DHT22;30180;44.788;10.366;2023-10-08T05:49:35;23.10;63.30
44477;DHT22;30180;44.788;10.366;2023-10-08T05:52:21;23.20;63.30
44477;DHT22;30180;44.788;10.366;2023-10-08T05:55:17;23.20;63.30
44477;DHT22;30180;44.788;10.366;2023-10-08T05:57:53;23.10;63.30
44477;DHT22;30180;44.788;10.366;2023-10-08T06:00:40;23.10;63.30
44477;DHT22;30180;44.788;10.366;2023-10-08T06:03:32;23.10;63.30
44477;DHT22;30180;44.788;10.366;2023-10-08T06:06:06;23.10;63.30
44477;DHT22;30180;44.788;10.366;2023-10-08T06:08:50;23.10;63.20
44477;DHT22;30180;44.788;10.366;2023-10-08T06:11:48;23.10;63.30
44477;DHT22;30180;44.788;10.366;2023-10-08T06:14:37;23.10;63.20
44477;DHT22;30180;44.788;10.366;2023-10-08T06:17:35;23.10;63.20
44477;DHT22;30180;44.788;10.366;2023-10-08T06:20:18;23.10;63.20
44477;DHT22;30180;44.788;10.366;2023-10-08T06:22:54;23.10;63.30
44477;DHT22;30180;44.788;10.366;2023-10-08T06:25:28;23.10;63.30
44477;DHT22;30180;44.788;10.366;2023-10-08T06:27:57;23.10;63.30
44477;DHT22;30180;44.788;10.366;2023-10-08T06:30:25;23.10;63.20
44477;DHT22;30180;44.788;10.366;2023-10-08T06:32:57;23.10;63.20
44477;DHT22;30180;44.788;10.366;2023-10-08T06:35:27;23.10;63.30
44477;DHT22;30180;44.788;10.366;2023-10-08T06:37:57;23.10;63.20
44477;DHT22;30180;44.788;10.366;2023-10-08T06:40:28;23.10;63.20
44477;DHT22;30180;44.788;10.366;2023-10-08T06:43:07;23.10;63.20
44477;DHT22;30180;44.788;10.366;2023-10-08T06:45:49;23.10;63.20
44477;DHT22;30180;44.788;10.366;2023-10-08T06:48:21;23.10;63.20
44477;DHT22;30180;44.788;10.366;2023-10-08T06:50:52;23.10;63.20
44477;DHT22;30180;44.788;10.366;2023-10-08T06:53:25;23.10;63.20
44477;DHT22;30180;44.788;10.366;2023-10-08T06:55:57;23.10;63.20
44477;DHT22;30180;44.788;10.366;2023-10-08T06:58:31;23.10;63.20
44477;DHT22;30180;44.788;10.366;2023-10-08T07:01:00;23.10;63.30
44477;DHT22;30180;44.788;10.366;2023-10-08T07:03:32;23.10;63.30
44477;DHT22;30180;44.788;10.366;2023-10-08T07:06:02;23.10;63.30
44477;DHT22;30180;44.788;10.366;2023-10-08T07:08:45;23.20;63.30
44477;DHT22;30180;44.788;10.366;2023-10-08T07:11:22;23.10;63.30
44477;DHT22;30180;44.788;10.366;2023-10-08T07:13:50;23.20;63.30
44477;DHT22;30180;44.788;10.366;2023-10-08T07:16:19;23.20;63.30
44477;DHT22;30180;44.788;10.366;2023-10-08T07:18:48;23.20;63.30
44477;DHT22;30180;44.788;10.366;2023-10-08T07:21:18;23.20;63.30
44477;DHT22;30180;44.788;10.366;2023-10-08T07:23:52;23.20;63.30
44477;DHT22;30180;44.788;10.366;2023-10-08T07:26:28;23.20;63.30
44477;DHT22;30180;44.788;10.366;2023-10-08T07:29:05;23.20;63.30
44477;DHT22;30180;44.788;10.366;2023-10-08T07:31:36;23.20;63.30
44477;DHT22;30180;44.788;10.366;2023-10-08T07:34:05;23.20;63.20
44477;DHT22;30180;44.788;10.366;2023-10-08T07:36:46;23.20;63.20
44477;DHT22;30180;44.788;10.366;2023-10-08T07:39:19;23.20;63.20
44477;DHT22;30180;44.788;10.366;2023-10-08T07:42:02;23.20;63.20
44477;DHT22;30180;44.788;10.366;2023-10-08T07:44:33;23.20;63.30
44477;DHT22;30180;44.788;10.366;2023-10-08T07:47:03;23.20;63.30
44477;DHT22;30180;44.788;10.366;2023-10-08T07:49:37;23.20;63.20
44477;DHT22;30180;44.788;10.366;2023-10-08T07:52:05;23.20;63.20
44477;DHT22;30180;44.788;10.366;2023-10-08T07:54:35;23.20;63.30
44477;DHT22;30180;44.788;10.366;2023-10-08T07:57:03;23.10;63.20
44477;DHT22;30180;44.788;10.366;2023-10-08T07:59:39;23.10;63.20
44477;DHT22;30180;44.788;10.366;2023-10-08T08:02:09;23.20;63.30
44477;DHT22;30180;44.788;10.366;2023-10-08T08:04:38;23.20;63.30
44477;DHT22;30180;44.788;10.366;2023-10-08T08:07:08;23.10;63.20
44477;DHT22;30180;44.788;10.366;2023-10-08T08:09:45;23.10;63.20
44477;DHT22;30180;44.788;10.366;2023-10-08T08:12:19;23.10;63.20
44477;DHT22;30180;44.788;10.366;2023-10-08T08:14:50;23.10;63.20
44477;DHT22;30180;44.788;10.366;2023-10-08T08:17:19;23.20;63.30
44477;DHT22;30180;44.788;10.366;2023-10-08T08:19:51;23.20;63.30
44477;DHT22;30180;44.788;10.366;2023-10-08T08:22:20;23.10;63.20
44477;DHT22;30180;44.788;10.366;2023-10-08T08:24:52;23.10;63.20
44477;DHT22;30180;44.788;10.366;2023-10-08T08:27:25;23.20;63.30
44477;DHT22;30180;44.788;10.366;2023-10-08T08:30:00;23.10;63.20
44477;DHT22;30180;44.788;10.366;2023-10-08T08:32:37;23.10;63.30
44477;DHT22;30180;44.788;10.366;2023-10-08T08:35:08;23.20;63.30
44477;DHT22;30180;44.788;10.366;2023-10-08T08:37:37;23.20;63.30
44477;DHT22;30180;44.788;10.366;2023-10-08T08:40:09;23.20;63.30
44477;DHT22;30180;44.788;10.366;2023-10-08T08:42:45;23.20;63.30
44477;DHT22;30180;44.788;10.366;2023-10-08T08:45:19;23.10;63.20
44477;DHT22;30180;44.788;10.366;2023-10-08T08:47:48;23.20;63.30
44477;DHT22;30180;44.788;10.366;2023-10-08T08:50:17;23.20;63.30
44477;DHT22;30180;44.788;10.366;2023-10-08T08:52:47;23.20;63.30
44477;DHT22;30180;44.788;10.366;2023-10-08T08:55:16;23.20;63.30
44477;DHT22;30180;44.788;10.366;2023-10-08T08:57:48;23.10;63.20
44477;DHT22;30180;44.788;10.366;2023-10-08T09:00:19;23.20;63.30
44477;DHT22;30180;44.788;10.366;2023-10-08T09:02:48;23.20;63.30
44477;DHT22;30180;44.788;10.366;2023-10-08T09:05:17;23.20;63.30
44477;DHT22;30180;44.788;10.366;2023-10-08T09:07:57;23.10;63.20
44477;DHT22;30180;44.788;10.366;2023-10-08T09:10:27;23.10;63.20
44477;DHT22;30180;44.788;10.366;2023-10-08T09:12:57;23.10;63.20
44477;DHT22;30180;44.788;10.366;2023-10-08T09:15:26;23.10;63.20
44477;DHT22;30180;44.788;10.366;2023-10-08T09:17:56;23.10;63.20
44477;DHT22;30180;44.788;10.366;2023-10-08T09:20:28;23.20;63.20
44477;DHT22;30180;44.788;10.366;2023-10-08T09:23:06;23.10;63.20
44477;DHT22;30180;44.788;10.366;2023-10-08T09:25:42;23.10;63.20
44477;DHT22;30180;44.788;10.366;2023-10-08T09:28:11;23.10;63.20
44477;DHT22;30180;44.788;10.366;2023-10-08T09:30:41;23.10;63.20
44477;DHT22;30180;44.788;10.366;2023-10-08T09:33:13;23.10;63.20
44477;DHT22;30180;44.788;10.366;2023-10-08T09:35:42;23.10;63.20
44477;DHT22;30180;44.788;10.366;2023-10-08T09:38:11;23.10;63.20
44477;DHT22;30180;44.788;10.366;2023-10-08T09:40:41;23.10;63.20
44477;DHT22;30180;44.788;10.366;2023-10-08T09:43:12;23.10;63.20
44477;DHT22;30180;44.788;10.366;2023-10-08T09:45:47;23.10;63.20
44477;DHT22;30180;44.788;10.366;2023-10-08T09:48:18;23.10;63.20
44477;DHT22;30180;44.788;10.366;2023-10-08T09:50:49;23.10;63.20
44477;DHT22;30180;44.788;10.366;2023-10-08T09:53:25;23.10;63.20
44477;DHT22;30180;44.788;10.366;2023-10-08T09:55:57;23.10;63.20
44477;DHT22;30180;44.788;10.366;2023-10-08T09:58:26;23.10;63.20
44477;DHT22;30180;44.788;10.366;2023-10-08T10:00:57;23.10;63.20
44477;DHT22;30180;44.788;10.366;2023-10-08T10:03:26;23.10;63.20
44477;DHT22;30180;44.788;10.366;2023-10-08T10:05:54;23.10;63.20
44477;DHT22;30180;44.788;10.366;2023-10-08T10:08:29;23.10;63.20
44477;DHT22;30180;44.788;10.366;2023-10-08T10:11:04;23.10;63.20
44477;DHT22;30180;44.788;10.366;2023-10-08T10:13:38;23.10;63.20
44477;DHT22;30180;44.788;10.366;2023-10-08T10:16:09;23.10;63.20
44477;DHT22;30180;44.788;10.366;2023-10-08T10:18:43;23.10;63.20
44477;DHT22;30180;44.788;10.366;2023-10-08T10:21:30;23.10;63.20
44477;DHT22;30180;44.788;10.366;2023-10-08T10:24:00;23.10;63.20
44477;DHT22;30180;44.788;10.366;2023-10-08T10:26:35;23.10;63.20
44477;DHT22;30180;44.788;10.366;2023-10-08T10:29:23;23.10;63.20
44477;DHT22;30180;44.788;10.366;2023-10-08T10:31:54;23.10;63.20
44477;DHT22;30180;44.788;10.366;2023-10-08T10:34:25;23.10;63.20
44477;DHT22;30180;44.788;10.366;2023-10-08T10:36:54;23.10;63.20
44477;DHT22;30180;44.788;10.366;2023-10-08T10:39:26;23.10;63.20
44477;DHT22;30180;44.788;10.366;2023-10-08T10:41:58;23.10;63.20
44477;DHT22;30180;44.788;10.366;2023-10-08T10:44:29;23.10;63.20
44477;DHT22;30180;44.788;10.366;2023-10-08T10:46:59;23.10;63.20
44477;DHT22;30180;44.788;10.366;2023-10-08T10:49:46;23.10;63.20
44477;DHT22;30180;44.788;10.366;2023-10-08T10:52:21;23.10;63.20
44477;DHT22;30180;44.788;10.366;2023-10-08T10:55:12;23.10;63.20
44477;DHT22;30180;44.788;10.366;2023-10-08T10:57:53;23.10;63.10
44477;DHT22;30180;44.788;10.366;2023-10-08T11:00:24;23.10;63.20
44477;DHT22;30180;44.788;10.366;2023-10-08T11:03:10;23.10;63.20
44477;DHT22;30180;44.788;10.366;2023-10-08T11:05:48;23.10;63.20
44477;DHT22;30180;44.788;10.366;2023-10-08T11:08:19;23.10;63.20
44477;DHT22;30180;44.788;10.366;2023-10-08T11:10:51;23.10;63.10
44477;DHT22;30180;44.788;10.366;2023-10-08T11:13:23;23.10;63.20
44477;DHT22;30180;44.788;10.366;2023-10-08T11:15:56;23.10;63.10
44477;DHT22;30180;44.788;10.366;2023-10-08T11:18:27;23.10;63.20
44477;DHT22;30180;44.788;10.366;2023-10-08T11:21:06;23.10;63.20
44477;DHT22;30180;44.788;10.366;2023-10-08T11:23:45;23.10;63.20
44477;DHT22;30180;44.788;10.366;2023-10-08T11:26:23;23.10;63.20
44477;DHT22;30180;44.788;10.366;2023-10-08T11:29:02;23.10;63.20
44477;DHT22;30180;44.788;10.366;2023-10-08T11:31:32;23.10;63.10
44477;DHT22;30180;44.788;10.366;2023-10-08T11:34:03;23.10;63.20
44477;DHT22;30180;44.788;10.366;2023-10-08T11:36:37;23.10;63.20
44477;DHT22;30180;44.788;10.366;2023-10-08T11:39:16;23.10;63.20
44477;DHT22;30180;44.788;10.366;2023-10-08T11:41:59;23.10;63.20
44477;DHT22;30180;44.788;10.366;2023-10-08T11:44:34;23.10;63.20
44477;DHT22;30180;44.788;10.366;2023-10-08T11:47:05;23.10;63.20
44477;DHT22;30180;44.788;10.366;2023-10-08T11:49:41;23.10;63.20
44477;DHT22;30180;44.788;10.366;2023-10-08T11:52:15;23.10;63.10
44477;DHT22;30180;44.788;10.366;2023-10-08T11:54:44;23.10;63.20
44477;DHT22;30180;44.788;10.366;2023-10-08T11:57:15;23.10;63.20
44477;DHT22;30180;44.788;10.366;2023-10-08T11:59:51;23.10;63.20
44477;DHT22;30180;44.788;10.366;2023-10-08T12:02:22;23.10;63.20
44477;DHT22;30180;44.788;10.366;2023-10-08T12:04:50;23.10;63.20
44477;DHT22;30180;44.788;10.366;2023-10-08T12:07:19;23.10;63.20
44477;DHT22;30180;44.788;10.366;2023-10-08T12:09:50;23.10;63.20
44477;DHT22;30180;44.788;10.366;2023-10-08T12:12:21;23.10;63.20
44477;DHT22;30180;44.788;10.366;2023-10-08T12:14:51;23.10;63.20
44477;DHT22;30180;44.788;10.366;2023-10-08T12:17:22;23.10;63.20
44477;DHT22;30180;44.788;10.366;2023-10-08T12:20:05;23.10;63.20
44477;DHT22;30180;44.788;10.366;2023-10-08T12:22:50;23.10;63.20
44477;DHT22;30180;44.788;10.366;2023-10-08T12:25:19;23.10;63.20
44477;DHT22;30180;44.788;10.366;2023-10-08T12:27:48;23.10;63.20
44477;DHT22;30180;44.788;10.366;2023-10-08T12:30:17;23.10;63.20
44477;DHT22;30180;44.788;10.366;2023-10-08T12:32:46;23.10;63.20
44477;DHT22;30180;44.788;10.366;2023-10-08T12:35:14;23.10;63.20
44477;DHT22;30180;44.788;10.366;2023-10-08T12:37:42;23.10;63.20
44477;DHT22;30180;44.788;10.366;2023-10-08T12:40:11;23.10;63.30
44477;DHT22;30180;44.788;10.366;2023-10-08T12:42:51;23.10;63.30
44477;DHT22;30180;44.788;10.366;2023-10-08T12:45:20;23.10;63.30
44477;DHT22;30180;44.788;10.366;2023-10-08T12:47:49;23.10;63.30
44477;DHT22;30180;44.788;10.366;2023-10-08T12:50:18;23.10;63.30
44477;DHT22;30180;44.788;10.366;2023-10-08T12:52:57;23.10;63.30
44477;DHT22;30180;44.788;10.366;2023-10-08T12:55:31;23.10;63.30
44477;DHT22;30180;44.788;10.366;2023-10-08T12:58:06;23.10;63.30
44477;DHT22;30180;44.788;10.366;2023-10-08T13:00:38;23.10;63.40
44477;DHT22;30180;44.788;10.366;2023-10-08T13:03:08;23.20;63.40
44477;DHT22;30180;44.788;10.366;2023-10-08T13:05:42;23.10;63.30
44477;DHT22;30180;44.788;10.366;2023-10-08T13:08:12;23.10;63.30
44477;DHT22;30180;44.788;10.366;2023-10-08T13:10:41;23.10;63.30
44477;DHT22;30180;44.788;10.366;2023-10-08T13:13:11;23.10;63.30
44477;DHT22;30180;44.788;10.366;2023-10-08T13:15:42;23.10;63.30
44477;DHT22;30180;44.788;10.366;2023-10-08T13:18:10;23.10;63.30
44477;DHT22;30180;44.788;10.366;2023-10-08T13:20:38;23.20;63.40
44477;DHT22;30180;44.788;10.366;2023-10-08T13:23:08;23.10;63.40
44477;DHT22;30180;44.788;10.366;2023-10-08T13:25:37;23.20;63.40
44477;DHT22;30180;44.788;10.366;2023-10-08T13:28:06;23.20;63.40
44477;DHT22;30180;44.788;10.366;2023-10-08T13:30:38;23.20;63.50
44477;DHT22;30180;44.788;10.366;2023-10-08T13:33:08;23.20;63.50
44477;DHT22;30180;44.788;10.366;2023-10-08T13:35:37;23.20;63.40
44477;DHT22;30180;44.788;10.366;2023-10-08T13:38:06;23.20;63.40
44477;DHT22;30180;44.788;10.366;2023-10-08T13:40:40;23.30;63.50
44477;DHT22;30180;44.788;10.366;2023-10-08T13:43:30;23.20;63.40
44477;DHT22;30180;44.788;10.366;2023-10-08T13:46:02;23.20;63.40
44477;DHT22;30180;44.788;10.366;2023-10-08T13:48:35;23.30;63.40
44477;DHT22;30180;44.788;10.366;2023-10-08T13:51:04;23.20;63.30
44477;DHT22;30180;44.788;10.366;2023-10-08T13:53:38;23.20;63.40
44477;DHT22;30180;44.788;10.366;2023-10-08T13:56:07;23.20;63.40
44477;DHT22;30180;44.788;10.366;2023-10-08T13:58:38;23.20;63.30
44477;DHT22;30180;44.788;10.366;2023-10-08T14:01:13;23.20;63.30
44477;DHT22;30180;44.788;10.366;2023-10-08T14:03:49;23.20;63.30
44477;DHT22;30180;44.788;10.366;2023-10-08T14:06:21;23.20;63.30
44477;DHT22;30180;44.788;10.366;2023-10-08T14:08:49;23.20;63.30
44477;DHT22;30180;44.788;10.366;2023-10-08T14:11:20;23.20;63.30
44477;DHT22;30180;44.788;10.366;2023-10-08T14:13:50;23.20;63.30
44477;DHT22;30180;44.788;10.366;2023-10-08T14:16:19;23.20;63.30
44477;DHT22;30180;44.788;10.366;2023-10-08T14:18:52;23.20;63.20
44477;DHT22;30180;44.788;10.366;2023-10-08T14:21:22;23.20;63.30
44477;DHT22;30180;44.788;10.366;2023-10-08T14:23:51;23.20;63.30
44477;DHT22;30180;44.788;10.366;2023-10-08T14:26:20;23.20;63.30
44477;DHT22;30180;44.788;10.366;2023-10-08T14:28:49;23.20;63.20
44477;DHT22;30180;44.788;10.366;2023-10-08T14:31:24;23.20;63.20
44477;DHT22;30180;44.788;10.366;2023-10-08T14:33:55;23.20;63.20
44477;DHT22;30180;44.788;10.366;2023-10-08T14:36:32;23.20;63.20
44477;DHT22;30180;44.788;10.366;2023-10-08T14:39:18;23.20;63.20
44477;DHT22;30180;44.788;10.366;2023-10-08T14:42:04;23.20;63.10
44477;DHT22;30180;44.788;10.366;2023-10-08T14:44:50;23.20;63.10
44477;DHT22;30180;44.788;10.366;2023-10-08T14:47:18;23.20;63.10
44477;DHT22;30180;44.788;10.366;2023-10-08T14:49:48;23.20;63.10
44477;DHT22;30180;44.788;10.366;2023-10-08T14:52:17;23.20;63.10
44477;DHT22;30180;44.788;10.366;2023-10-08T14:54:47;23.20;63.10
44477;DHT22;30180;44.788;10.366;2023-10-08T14:57:15;23.20;63.10
44477;DHT22;30180;44.788;10.366;2023-10-08T14:59:45;23.10;63.00
44477;DHT22;30180;44.788;10.366;2023-10-08T15:02:13;23.20;63.10
44477;DHT22;30180;44.788;10.366;2023-10-08T15:04:42;23.20;63.10
44477;DHT22;30180;44.788;10.366;2023-10-08T15:07:12;23.20;63.10
44477;DHT22;30180;44.788;10.366;2023-10-08T15:09:44;23.20;63.00
44477;DHT22;30180;44.788;10.366;2023-10-08T15:12:13;23.20;63.00
44477;DHT22;30180;44.788;10.366;2023-10-08T15:14:43;23.20;63.10
44477;DHT22;30180;44.788;10.366;2023-10-08T15:17:11;23.10;63.00
44477;DHT22;30180;44.788;10.366;2023-10-08T15:19:40;23.10;63.00
44477;DHT22;30180;44.788;10.366;2023-10-08T15:22:08;23.20;63.10
44477;DHT22;30180;44.788;10.366;2023-10-08T15:24:38;23.20;63.00
44477;DHT22;30180;44.788;10.366;2023-10-08T15:27:07;23.10;63.00
44477;DHT22;30180;44.788;10.366;2023-10-08T15:29:37;23.20;63.00
44477;DHT22;30180;44.788;10.366;2023-10-08T15:32:06;23.10;62.90
44477;DHT22;30180;44.788;10.366;2023-10-08T15:34:34;23.10;62.90
44477;DHT22;30180;44.788;10.366;2023-10-08T15:37:06;23.20;63.00
44477;DHT22;30180;44.788;10.366;2023-10-08T15:39:34;23.10;63.20
44477;DHT22;30180;44.788;10.366;2023-10-08T15:42:04;23.20;63.00
44477;DHT22;30180;44.788;10.366;2023-10-08T15:44:33;23.20;63.00
44477;DHT22;30180;44.788;10.366;2023-10-08T15:47:02;23.20;63.00
44477;DHT22;30180;44.788;10.366;2023-10-08T15:49:30;23.20;63.00
44477;DHT22;30180;44.788;10.366;2023-10-08T15:51:58;23.20;63.00